sensor_id;sensor_type;location;lat;lon;timestamp;P1;durP1;ratioP1;P2;durP2;ratioP2
35909;SDS011;22004;49.120;-0.200;2022-11-15T00:01:43;12.00;;;4.30;;
35909;SDS011;22004;49.120;-0.200;2022-11-15T00:04:09;10.20;;;4.35;;
35909;SDS011;22004;49.120;-0.200;2022-11-15T00:06:35;11.77;;;4.65;;
35909;SDS011;22004;49.120;-0.200;2022-11-15T00:09:00;13.98;;;3.17;;
35909;SDS011;22004;49.120;-0.200;2022-11-15T00:11:26;15.80;;;3.33;;
35909;SDS011;22004;49.120;-0.200;2022-11-15T00:13:55;10.25;;;4.60;;
35909;SDS011;22004;49.120;-0.200;2022-11-15T00:16:21;12.05;;;4.32;;
35909;SDS011;22004;49.120;-0.200;2022-11-15T00:18:47;11.40;;;2.92;;
35909;SDS011;22004;49.120;-0.200;2022-11-15T00:21:13;10.57;;;2.67;;
35909;SDS011;22004;49.120;-0.200;2022-11-15T00:23:39;9.50;;;3.90;;
35909;SDS011;22004;49.120;-0.200;2022-11-15T00:26:05;15.25;;;4.05;;
35909;SDS011;22004;49.120;-0.200;2022-11-15T00:28:30;18.10;;;3.80;;
35909;SDS011;22004;49.120;-0.200;2022-11-15T00:31:03;11.95;;;2.60;;
35909;SDS011;22004;49.120;-0.200;2022-11-15T00:33:29;10.95;;;2.97;;
35909;SDS011;22004;49.120;-0.200;2022-11-15T00:36:05;10.30;;;2.50;;
35909;SDS011;22004;49.120;-0.200;2022-11-15T00:38:37;16.05;;;3.13;;
35909;SDS011;22004;49.120;-0.200;2022-11-15T00:41:04;19.67;;;6.88;;
35909;SDS011;22004;49.120;-0.200;2022-11-15T00:43:31;19.70;;;4.93;;
35909;SDS011;22004;49.120;-0.200;2022-11-15T00:45:56;9.32;;;3.58;;
35909;SDS011;22004;49.120;-0.200;2022-11-15T00:48:22;17.52;;;5.65;;
35909;SDS011;22004;49.120;-0.200;2022-11-15T00:50:48;18.73;;;4.07;;
35909;SDS011;22004;49.120;-0.200;2022-11-15T00:53:14;13.90;;;4.20;;
35909;SDS011;22004;49.120;-0.200;2022-11-15T00:55:39;11.02;;;3.40;;
35909;SDS011;22004;49.120;-0.200;2022-11-15T00:58:04;12.35;;;4.05;;
35909;SDS011;22004;49.120;-0.200;2022-11-15T01:00:30;10.10;;;2.97;;
35909;SDS011;22004;49.120;-0.200;2022-11-15T01:02:55;9.90;;;2.55;;
35909;SDS011;22004;49.120;-0.200;2022-11-15T01:05:21;11.90;;;3.28;;
35909;SDS011;22004;49.120;-0.200;2022-11-15T01:07:46;10.70;;;4.30;;
35909;SDS011;22004;49.120;-0.200;2022-11-15T01:10:11;11.98;;;3.58;;
35909;SDS011;22004;49.120;-0.200;2022-11-15T01:12:37;15.18;;;4.28;;
35909;SDS011;22004;49.120;-0.200;2022-11-15T01:15:03;14.70;;;3.65;;
35909;SDS011;22004;49.120;-0.200;2022-11-15T01:17:29;13.77;;;3.50;;
35909;SDS011;22004;49.120;-0.200;2022-11-15T01:19:55;12.27;;;2.80;;
35909;SDS011;22004;49.120;-0.200;2022-11-15T01:22:21;14.15;;;2.97;;
35909;SDS011;22004;49.120;-0.200;2022-11-15T01:24:48;20.58;;;2.95;;
35909;SDS011;22004;49.120;-0.200;2022-11-15T01:27:14;12.27;;;2.75;;
35909;SDS011;22004;49.120;-0.200;2022-11-15T01:29:40;11.70;;;3.25;;
35909;SDS011;22004;49.120;-0.200;2022-11-15T01:32:05;16.77;;;2.90;;
35909;SDS011;22004;49.120;-0.200;2022-11-15T01:34:30;11.13;;;3.00;;
35909;SDS011;22004;49.120;-0.200;2022-11-15T01:36:56;10.75;;;2.83;;
35909;SDS011;22004;49.120;-0.200;2022-11-15T01:39:21;9.00;;;2.53;;
35909;SDS011;22004;49.120;-0.200;2022-11-15T01:41:47;17.30;;;2.38;;
35909;SDS011;22004;49.120;-0.200;2022-11-15T01:46:56;11.10;;;2.20;;
35909;SDS011;22004;49.120;-0.200;2022-11-15T01:49:24;14.63;;;3.28;;
35909;SDS011;22004;49.120;-0.200;2022-11-15T01:51:52;10.52;;;2.22;;
35909;SDS011;22004;49.120;-0.200;2022-11-15T01:54:20;12.48;;;2.30;;
35909;SDS011;22004;49.120;-0.200;2022-11-15T01:56:52;14.00;;;2.92;;
35909;SDS011;22004;49.120;-0.200;2022-11-15T01:59:22;14.20;;;2.80;;
35909;SDS011;22004;49.120;-0.200;2022-11-15T02:01:48;8.38;;;2.42;;
35909;SDS011;22004;49.120;-0.200;2022-11-15T02:04:18;16.58;;;2.83;;
35909;SDS011;22004;49.120;-0.200;2022-11-15T02:06:49;12.10;;;2.83;;
35909;SDS011;22004;49.120;-0.200;2022-11-15T02:09:14;9.25;;;2.35;;
35909;SDS011;22004;49.120;-0.200;2022-11-15T02:11:40;12.55;;;2.55;;
35909;SDS011;22004;49.120;-0.200;2022-11-15T02:14:06;11.20;;;2.35;;
35909;SDS011;22004;49.120;-0.200;2022-11-15T02:16:56;12.05;;;2.83;;
35909;SDS011;22004;49.120;-0.200;2022-11-15T02:30:38;17.25;;;3.33;;
35909;SDS011;22004;49.120;-0.200;2022-11-15T02:35:49;7.63;;;2.63;;
35909;SDS011;22004;49.120;-0.200;2022-11-15T02:38:34;13.23;;;2.70;;
35909;SDS011;22004;49.120;-0.200;2022-11-15T02:41:14;11.40;;;2.67;;
35909;SDS011;22004;49.120;-0.200;2022-11-15T02:43:48;16.67;;;2.93;;
35909;SDS011;22004;49.120;-0.200;2022-11-15T02:49:13;18.40;;;3.15;;
35909;SDS011;22004;49.120;-0.200;2022-11-15T02:51:39;8.93;;;3.00;;
35909;SDS011;22004;49.120;-0.200;2022-11-15T02:54:06;12.32;;;2.78;;
35909;SDS011;22004;49.120;-0.200;2022-11-15T02:56:32;14.80;;;3.33;;
35909;SDS011;22004;49.120;-0.200;2022-11-15T02:59:15;13.30;;;3.17;;
35909;SDS011;22004;49.120;-0.200;2022-11-15T03:04:58;18.35;;;4.18;;
35909;SDS011;22004;49.120;-0.200;2022-11-15T03:13:10;16.55;;;3.63;;
35909;SDS011;22004;49.120;-0.200;2022-11-15T03:15:53;11.13;;;3.15;;
35909;SDS011;22004;49.120;-0.200;2022-11-15T03:21:00;8.63;;;2.83;;
35909;SDS011;22004;49.120;-0.200;2022-11-15T03:23:30;9.80;;;2.97;;
35909;SDS011;22004;49.120;-0.200;2022-11-15T03:25:56;14.45;;;3.20;;
35909;SDS011;22004;49.120;-0.200;2022-11-15T03:28:43;13.82;;;3.80;;
35909;SDS011;22004;49.120;-0.200;2022-11-15T03:31:13;12.00;;;4.05;;
35909;SDS011;22004;49.120;-0.200;2022-11-15T03:33:59;14.70;;;2.78;;
35909;SDS011;22004;49.120;-0.200;2022-11-15T03:36:29;17.10;;;3.03;;
35909;SDS011;22004;49.120;-0.200;2022-11-15T03:38:59;10.98;;;3.08;;
35909;SDS011;22004;49.120;-0.200;2022-11-15T03:41:35;17.70;;;3.22;;
35909;SDS011;22004;49.120;-0.200;2022-11-15T03:47:36;17.35;;;3.92;;
35909;SDS011;22004;49.120;-0.200;2022-11-15T03:50:10;14.65;;;3.17;;
35909;SDS011;22004;49.120;-0.200;2022-11-15T03:52:38;16.10;;;3.10;;
35909;SDS011;22004;49.120;-0.200;2022-11-15T03:55:06;17.25;;;3.30;;
35909;SDS011;22004;49.120;-0.200;2022-11-15T03:57:35;20.17;;;3.72;;
35909;SDS011;22004;49.120;-0.200;2022-11-15T04:00:00;11.32;;;3.03;;
35909;SDS011;22004;49.120;-0.200;2022-11-15T04:02:26;12.40;;;3.58;;
35909;SDS011;22004;49.120;-0.200;2022-11-15T04:04:51;9.27;;;2.45;;
35909;SDS011;22004;49.120;-0.200;2022-11-15T04:07:16;10.73;;;2.80;;
35909;SDS011;22004;49.120;-0.200;2022-11-15T04:09:42;14.27;;;2.55;;
35909;SDS011;22004;49.120;-0.200;2022-11-15T04:12:26;12.50;;;2.35;;
35909;SDS011;22004;49.120;-0.200;2022-11-15T04:15:01;10.02;;;2.95;;
35909;SDS011;22004;49.120;-0.200;2022-11-15T04:17:42;8.35;;;2.30;;
35909;SDS011;22004;49.120;-0.200;2022-11-15T04:23:00;13.10;;;2.83;;
35909;SDS011;22004;49.120;-0.200;2022-11-15T04:25:45;16.33;;;2.75;;
35909;SDS011;22004;49.120;-0.200;2022-11-15T04:28:12;13.15;;;3.00;;
35909;SDS011;22004;49.120;-0.200;2022-11-15T04:30:37;7.47;;;2.53;;
35909;SDS011;22004;49.120;-0.200;2022-11-15T04:33:03;12.88;;;2.83;;
35909;SDS011;22004;49.120;-0.200;2022-11-15T04:35:28;13.13;;;2.75;;
35909;SDS011;22004;49.120;-0.200;2022-11-15T04:37:56;14.98;;;3.05;;
35909;SDS011;22004;49.120;-0.200;2022-11-15T04:40:23;12.52;;;2.47;;
35909;SDS011;22004;49.120;-0.200;2022-11-15T04:42:48;19.23;;;2.85;;
35909;SDS011;22004;49.120;-0.200;2022-11-15T04:45:13;12.48;;;2.33;;
35909;SDS011;22004;49.120;-0.200;2022-11-15T04:47:39;17.00;;;2.88;;
35909;SDS011;22004;49.120;-0.200;2022-11-15T04:50:04;14.70;;;3.13;;
35909;SDS011;22004;49.120;-0.200;2022-11-15T04:52:30;16.08;;;2.55;;
35909;SDS011;22004;49.120;-0.200;2022-11-15T04:54:56;14.13;;;3.00;;
35909;SDS011;22004;49.120;-0.200;2022-11-15T04:57:21;13.52;;;2.72;;
35909;SDS011;22004;49.120;-0.200;2022-11-15T04:59:46;10.75;;;2.15;;
35909;SDS011;22004;49.120;-0.200;2022-11-15T05:02:12;16.75;;;2.47;;
35909;SDS011;22004;49.120;-0.200;2022-11-15T05:04:37;15.70;;;2.53;;
35909;SDS011;22004;49.120;-0.200;2022-11-15T05:07:02;14.25;;;2.15;;
35909;SDS011;22004;49.120;-0.200;2022-11-15T05:09:30;13.13;;;2.67;;
35909;SDS011;22004;49.120;-0.200;2022-11-15T05:11:56;11.02;;;2.22;;
35909;SDS011;22004;49.120;-0.200;2022-11-15T05:14:21;13.07;;;2.55;;
35909;SDS011;22004;49.120;-0.200;2022-11-15T05:16:46;9.35;;;2.38;;
35909;SDS011;22004;49.120;-0.200;2022-11-15T05:19:12;9.40;;;2.50;;
35909;SDS011;22004;49.120;-0.200;2022-11-15T05:21:37;20.05;;;3.03;;
35909;SDS011;22004;49.120;-0.200;2022-11-15T05:24:03;9.00;;;2.53;;
35909;SDS011;22004;49.120;-0.200;2022-11-15T05:26:29;11.73;;;2.85;;
35909;SDS011;22004;49.120;-0.200;2022-11-15T05:28:55;17.55;;;2.53;;
35909;SDS011;22004;49.120;-0.200;2022-11-15T05:31:22;16.02;;;2.78;;
35909;SDS011;22004;49.120;-0.200;2022-11-15T05:33:49;16.70;;;2.60;;
35909;SDS011;22004;49.120;-0.200;2022-11-15T05:36:27;11.98;;;2.60;;
35909;SDS011;22004;49.120;-0.200;2022-11-15T05:38:56;15.20;;;2.40;;
35909;SDS011;22004;49.120;-0.200;2022-11-15T05:41:25;13.88;;;2.40;;
35909;SDS011;22004;49.120;-0.200;2022-11-15T05:43:57;14.30;;;2.70;;
35909;SDS011;22004;49.120;-0.200;2022-11-15T05:46:24;14.50;;;3.28;;
35909;SDS011;22004;49.120;-0.200;2022-11-15T05:48:49;15.82;;;2.80;;
35909;SDS011;22004;49.120;-0.200;2022-11-15T05:51:17;8.27;;;2.22;;
35909;SDS011;22004;49.120;-0.200;2022-11-15T05:53:44;12.40;;;2.03;;
35909;SDS011;22004;49.120;-0.200;2022-11-15T05:56:10;8.75;;;2.08;;
35909;SDS011;22004;49.120;-0.200;2022-11-15T05:58:36;13.38;;;2.15;;
35909;SDS011;22004;49.120;-0.200;2022-11-15T06:01:02;8.43;;;2.22;;
35909;SDS011;22004;49.120;-0.200;2022-11-15T06:03:27;10.05;;;2.08;;
35909;SDS011;22004;49.120;-0.200;2022-11-15T06:05:53;12.52;;;2.17;;
35909;SDS011;22004;49.120;-0.200;2022-11-15T06:08:19;11.02;;;2.33;;
35909;SDS011;22004;49.120;-0.200;2022-11-15T06:10:44;9.40;;;1.95;;
35909;SDS011;22004;49.120;-0.200;2022-11-15T06:13:09;10.70;;;1.65;;
35909;SDS011;22004;49.120;-0.200;2022-11-15T06:15:35;10.98;;;2.35;;
35909;SDS011;22004;49.120;-0.200;2022-11-15T06:18:00;15.18;;;2.42;;
35909;SDS011;22004;49.120;-0.200;2022-11-15T06:20:26;16.58;;;2.00;;
35909;SDS011;22004;49.120;-0.200;2022-11-15T06:22:56;10.70;;;1.90;;
35909;SDS011;22004;49.120;-0.200;2022-11-15T06:25:26;11.32;;;2.10;;
35909;SDS011;22004;49.120;-0.200;2022-11-15T06:27:52;17.58;;;2.17;;
35909;SDS011;22004;49.120;-0.200;2022-11-15T06:30:19;14.05;;;2.38;;
35909;SDS011;22004;49.120;-0.200;2022-11-15T06:32:44;6.18;;;1.92;;
35909;SDS011;22004;49.120;-0.200;2022-11-15T06:35:10;17.60;;;2.30;;
35909;SDS011;22004;49.120;-0.200;2022-11-15T06:37:35;11.30;;;2.15;;
35909;SDS011;22004;49.120;-0.200;2022-11-15T06:40:01;12.20;;;2.13;;
35909;SDS011;22004;49.120;-0.200;2022-11-15T06:42:26;17.20;;;2.85;;
35909;SDS011;22004;49.120;-0.200;2022-11-15T06:44:51;13.18;;;2.03;;
35909;SDS011;22004;49.120;-0.200;2022-11-15T06:47:17;10.80;;;2.20;;
35909;SDS011;22004;49.120;-0.200;2022-11-15T06:49:42;12.27;;;2.67;;
35909;SDS011;22004;49.120;-0.200;2022-11-15T06:52:07;14.60;;;2.20;;
35909;SDS011;22004;49.120;-0.200;2022-11-15T06:54:33;14.23;;;2.15;;
35909;SDS011;22004;49.120;-0.200;2022-11-15T06:56:58;8.80;;;2.20;;
35909;SDS011;22004;49.120;-0.200;2022-11-15T06:59:23;12.00;;;2.55;;
35909;SDS011;22004;49.120;-0.200;2022-11-15T07:01:49;11.57;;;2.20;;
35909;SDS011;22004;49.120;-0.200;2022-11-15T07:04:14;12.77;;;2.67;;
35909;SDS011;22004;49.120;-0.200;2022-11-15T07:06:39;8.45;;;2.47;;
35909;SDS011;22004;49.120;-0.200;2022-11-15T07:09:05;11.93;;;3.05;;
35909;SDS011;22004;49.120;-0.200;2022-11-15T07:11:30;16.33;;;2.30;;
35909;SDS011;22004;49.120;-0.200;2022-11-15T07:13:57;14.85;;;2.38;;
35909;SDS011;22004;49.120;-0.200;2022-11-15T07:16:22;13.68;;;2.70;;
35909;SDS011;22004;49.120;-0.200;2022-11-15T07:18:48;16.58;;;3.15;;
35909;SDS011;22004;49.120;-0.200;2022-11-15T07:21:13;12.80;;;2.95;;
35909;SDS011;22004;49.120;-0.200;2022-11-15T07:23:39;15.43;;;2.25;;
35909;SDS011;22004;49.120;-0.200;2022-11-15T07:26:05;13.45;;;2.17;;
35909;SDS011;22004;49.120;-0.200;2022-11-15T07:28:31;9.35;;;2.17;;
35909;SDS011;22004;49.120;-0.200;2022-11-15T07:30:56;11.05;;;2.25;;
35909;SDS011;22004;49.120;-0.200;2022-11-15T07:33:22;11.25;;;1.95;;
35909;SDS011;22004;49.120;-0.200;2022-11-15T07:35:47;9.57;;;2.22;;
35909;SDS011;22004;49.120;-0.200;2022-11-15T07:38:16;8.85;;;1.85;;
35909;SDS011;22004;49.120;-0.200;2022-11-15T07:40:45;9.85;;;2.35;;
35909;SDS011;22004;49.120;-0.200;2022-11-15T07:43:11;8.13;;;1.95;;
35909;SDS011;22004;49.120;-0.200;2022-11-15T07:45:40;11.27;;;1.90;;
35909;SDS011;22004;49.120;-0.200;2022-11-15T07:48:09;12.90;;;2.13;;
35909;SDS011;22004;49.120;-0.200;2022-11-15T07:50:35;10.93;;;2.00;;
35909;SDS011;22004;49.120;-0.200;2022-11-15T07:53:00;12.65;;;1.95;;
35909;SDS011;22004;49.120;-0.200;2022-11-15T07:55:26;6.40;;;1.52;;
35909;SDS011;22004;49.120;-0.200;2022-11-15T07:58:04;7.35;;;1.33;;
35909;SDS011;22004;49.120;-0.200;2022-11-15T08:00:32;5.80;;;1.45;;
35909;SDS011;22004;49.120;-0.200;2022-11-15T08:03:09;5.85;;;1.60;;
35909;SDS011;22004;49.120;-0.200;2022-11-15T08:05:39;7.03;;;1.38;;
35909;SDS011;22004;49.120;-0.200;2022-11-15T08:08:05;11.73;;;1.77;;
35909;SDS011;22004;49.120;-0.200;2022-11-15T08:10:32;4.85;;;1.50;;
35909;SDS011;22004;49.120;-0.200;2022-11-15T08:15:31;5.63;;;1.25;;
35909;SDS011;22004;49.120;-0.200;2022-11-15T08:17:58;3.60;;;1.55;;
35909;SDS011;22004;49.120;-0.200;2022-11-15T08:20:26;2.95;;;1.13;;
35909;SDS011;22004;49.120;-0.200;2022-11-15T08:22:55;6.80;;;1.40;;
35909;SDS011;22004;49.120;-0.200;2022-11-15T08:25:21;6.13;;;1.70;;
35909;SDS011;22004;49.120;-0.200;2022-11-15T08:27:46;5.30;;;1.20;;
35909;SDS011;22004;49.120;-0.200;2022-11-15T08:30:12;4.10;;;1.10;;
35909;SDS011;22004;49.120;-0.200;2022-11-15T08:32:37;3.28;;;1.02;;
35909;SDS011;22004;49.120;-0.200;2022-11-15T08:35:03;4.60;;;1.10;;
35909;SDS011;22004;49.120;-0.200;2022-11-15T08:37:28;5.38;;;1.00;;
35909;SDS011;22004;49.120;-0.200;2022-11-15T08:39:54;4.20;;;1.08;;
35909;SDS011;22004;49.120;-0.200;2022-11-15T08:42:19;6.55;;;1.60;;
35909;SDS011;22004;49.120;-0.200;2022-11-15T08:44:44;4.65;;;1.05;;
35909;SDS011;22004;49.120;-0.200;2022-11-15T08:47:10;6.53;;;1.23;;
35909;SDS011;22004;49.120;-0.200;2022-11-15T08:49:37;14.35;;;4.53;;
35909;SDS011;22004;49.120;-0.200;2022-11-15T08:52:02;4.70;;;1.10;;
35909;SDS011;22004;49.120;-0.200;2022-11-15T08:54:28;5.03;;;1.75;;
35909;SDS011;22004;49.120;-0.200;2022-11-15T08:56:53;5.75;;;1.42;;
35909;SDS011;22004;49.120;-0.200;2022-11-15T08:59:18;6.65;;;1.70;;
35909;SDS011;22004;49.120;-0.200;2022-11-15T09:01:44;6.63;;;1.33;;
35909;SDS011;22004;49.120;-0.200;2022-11-15T09:04:09;3.92;;;1.33;;
35909;SDS011;22004;49.120;-0.200;2022-11-15T09:06:34;5.13;;;1.17;;
35909;SDS011;22004;49.120;-0.200;2022-11-15T09:09:00;3.80;;;1.08;;
35909;SDS011;22004;49.120;-0.200;2022-11-15T09:11:26;4.63;;;1.55;;
35909;SDS011;22004;49.120;-0.200;2022-11-15T09:13:52;4.03;;;1.42;;
35909;SDS011;22004;49.120;-0.200;2022-11-15T09:16:18;5.28;;;1.38;;
35909;SDS011;22004;49.120;-0.200;2022-11-15T09:18:43;3.20;;;1.30;;
35909;SDS011;22004;49.120;-0.200;2022-11-15T09:21:09;4.70;;;1.60;;
35909;SDS011;22004;49.120;-0.200;2022-11-15T09:23:35;10.05;;;2.50;;
35909;SDS011;22004;49.120;-0.200;2022-11-15T09:26:01;4.05;;;1.10;;
35909;SDS011;22004;49.120;-0.200;2022-11-15T09:28:28;3.38;;;1.60;;
35909;SDS011;22004;49.120;-0.200;2022-11-15T09:31:01;3.50;;;1.10;;
35909;SDS011;22004;49.120;-0.200;2022-11-15T09:33:28;2.53;;;1.10;;
35909;SDS011;22004;49.120;-0.200;2022-11-15T09:35:54;4.88;;;0.98;;
35909;SDS011;22004;49.120;-0.200;2022-11-15T09:38:26;6.15;;;1.33;;
35909;SDS011;22004;49.120;-0.200;2022-11-15T09:40:53;3.30;;;1.23;;
35909;SDS011;22004;49.120;-0.200;2022-11-15T09:49:07;2.63;;;1.00;;
35909;SDS011;22004;49.120;-0.200;2022-11-15T09:51:35;2.25;;;1.00;;
35909;SDS011;22004;49.120;-0.200;2022-11-15T09:54:15;4.88;;;1.00;;
35909;SDS011;22004;49.120;-0.200;2022-11-15T09:56:48;2.53;;;1.00;;
35909;SDS011;22004;49.120;-0.200;2022-11-15T10:04:37;3.50;;;1.33;;
35909;SDS011;22004;49.120;-0.200;2022-11-15T10:07:13;2.13;;;1.20;;
35909;SDS011;22004;49.120;-0.200;2022-11-15T10:09:54;2.47;;;1.05;;
35909;SDS011;22004;49.120;-0.200;2022-11-15T10:12:26;6.80;;;1.17;;
35909;SDS011;22004;49.120;-0.200;2022-11-15T10:15:01;4.15;;;1.20;;
35909;SDS011;22004;49.120;-0.200;2022-11-15T10:22:41;2.15;;;1.00;;
35909;SDS011;22004;49.120;-0.200;2022-11-15T10:25:15;2.63;;;0.93;;
35909;SDS011;22004;49.120;-0.200;2022-11-15T10:27:41;5.30;;;0.90;;
35909;SDS011;22004;49.120;-0.200;2022-11-15T10:30:15;2.17;;;0.95;;
35909;SDS011;22004;49.120;-0.200;2022-11-15T10:32:44;3.50;;;1.08;;
35909;SDS011;22004;49.120;-0.200;2022-11-15T10:37:47;3.28;;;1.20;;
35909;SDS011;22004;49.120;-0.200;2022-11-15T10:40:20;3.28;;;0.73;;
35909;SDS011;22004;49.120;-0.200;2022-11-15T10:42:48;2.33;;;1.00;;
35909;SDS011;22004;49.120;-0.200;2022-11-15T10:45:23;1.50;;;0.82;;
35909;SDS011;22004;49.120;-0.200;2022-11-15T10:50:39;3.28;;;0.95;;
35909;SDS011;22004;49.120;-0.200;2022-11-15T10:55:54;2.55;;;0.88;;
35909;SDS011;22004;49.120;-0.200;2022-11-15T10:58:29;2.60;;;1.10;;
35909;SDS011;22004;49.120;-0.200;2022-11-15T11:00:55;4.20;;;1.20;;
35909;SDS011;22004;49.120;-0.200;2022-11-15T11:05:49;4.00;;;1.00;;
35909;SDS011;22004;49.120;-0.200;2022-11-15T11:08:35;2.53;;;1.30;;
35909;SDS011;22004;49.120;-0.200;2022-11-15T11:11:02;2.78;;;1.00;;
35909;SDS011;22004;49.120;-0.200;2022-11-15T11:18:48;5.13;;;1.33;;
35909;SDS011;22004;49.120;-0.200;2022-11-15T11:21:16;1.40;;;1.10;;
35909;SDS011;22004;49.120;-0.200;2022-11-15T11:37:58;2.03;;;1.20;;
35909;SDS011;22004;49.120;-0.200;2022-11-15T11:43:42;2.65;;;1.25;;
35909;SDS011;22004;49.120;-0.200;2022-11-15T11:46:22;1.17;;;1.08;;
35909;SDS011;22004;49.120;-0.200;2022-11-15T11:49:06;4.43;;;1.35;;
35909;SDS011;22004;49.120;-0.200;2022-11-15T11:57:06;3.13;;;1.10;;
35909;SDS011;22004;49.120;-0.200;2022-11-15T11:59:42;2.42;;;1.02;;
35909;SDS011;22004;49.120;-0.200;2022-11-15T12:02:29;4.00;;;1.25;;
35909;SDS011;22004;49.120;-0.200;2022-11-15T12:10:30;1.88;;;1.17;;
35909;SDS011;22004;49.120;-0.200;2022-11-15T12:13:19;6.65;;;2.08;;
35909;SDS011;22004;49.120;-0.200;2022-11-15T12:15:52;3.05;;;1.30;;
35909;SDS011;22004;49.120;-0.200;2022-11-15T12:18:24;3.08;;;1.27;;
35909;SDS011;22004;49.120;-0.200;2022-11-15T12:20:54;2.85;;;1.10;;
35909;SDS011;22004;49.120;-0.200;2022-11-15T12:23:31;3.05;;;1.40;;
35909;SDS011;22004;49.120;-0.200;2022-11-15T12:26:04;3.35;;;1.30;;
35909;SDS011;22004;49.120;-0.200;2022-11-15T12:31:19;2.72;;;1.40;;
35909;SDS011;22004;49.120;-0.200;2022-11-15T12:33:49;3.50;;;1.20;;
35909;SDS011;22004;49.120;-0.200;2022-11-15T12:38:55;3.03;;;1.30;;
35909;SDS011;22004;49.120;-0.200;2022-11-15T12:41:26;5.55;;;1.23;;
35909;SDS011;22004;49.120;-0.200;2022-11-15T12:43:53;2.00;;;1.02;;
35909;SDS011;22004;49.120;-0.200;2022-11-15T12:46:58;2.45;;;1.42;;
35909;SDS011;22004;49.120;-0.200;2022-11-15T12:49:24;4.30;;;1.25;;
35909;SDS011;22004;49.120;-0.200;2022-11-15T13:02:18;4.68;;;1.33;;
35909;SDS011;22004;49.120;-0.200;2022-11-15T13:04:46;3.35;;;1.17;;
35909;SDS011;22004;49.120;-0.200;2022-11-15T13:09:59;5.78;;;1.20;;
35909;SDS011;22004;49.120;-0.200;2022-11-15T13:17:30;8.93;;;1.60;;
35909;SDS011;22004;49.120;-0.200;2022-11-15T13:20:01;6.38;;;1.50;;
35909;SDS011;22004;49.120;-0.200;2022-11-15T13:22:27;2.75;;;1.60;;
35909;SDS011;22004;49.120;-0.200;2022-11-15T13:28:09;6.20;;;2.30;;
35909;SDS011;22004;49.120;-0.200;2022-11-15T13:30:39;4.97;;;1.40;;
35909;SDS011;22004;49.120;-0.200;2022-11-15T13:35:46;2.58;;;1.08;;
35909;SDS011;22004;49.120;-0.200;2022-11-15T13:38:34;3.47;;;1.40;;
35909;SDS011;22004;49.120;-0.200;2022-11-15T13:41:18;1.90;;;1.20;;
35909;SDS011;22004;49.120;-0.200;2022-11-15T13:43:55;4.32;;;1.40;;
35909;SDS011;22004;49.120;-0.200;2022-11-15T13:46:25;4.47;;;1.67;;
35909;SDS011;22004;49.120;-0.200;2022-11-15T13:48:53;4.28;;;1.80;;
35909;SDS011;22004;49.120;-0.200;2022-11-15T13:53:54;4.07;;;1.30;;
35909;SDS011;22004;49.120;-0.200;2022-11-15T13:56:28;3.60;;;1.40;;
35909;SDS011;22004;49.120;-0.200;2022-11-15T13:58:57;6.63;;;4.25;;
35909;SDS011;22004;49.120;-0.200;2022-11-15T14:01:22;11.15;;;4.43;;
35909;SDS011;22004;49.120;-0.200;2022-11-15T14:03:56;9.27;;;4.93;;
35909;SDS011;22004;49.120;-0.200;2022-11-15T14:06:24;6.68;;;1.73;;
35909;SDS011;22004;49.120;-0.200;2022-11-15T14:11:35;4.75;;;3.65;;
35909;SDS011;22004;49.120;-0.200;2022-11-15T14:18:59;6.03;;;4.03;;
35909;SDS011;22004;49.120;-0.200;2022-11-15T14:21:25;10.07;;;4.03;;
35909;SDS011;22004;49.120;-0.200;2022-11-15T14:23:50;23.42;;;14.85;;
35909;SDS011;22004;49.120;-0.200;2022-11-15T14:26:30;26.70;;;14.85;;
35909;SDS011;22004;49.120;-0.200;2022-11-15T14:29:21;11.55;;;9.50;;
35909;SDS011;22004;49.120;-0.200;2022-11-15T14:31:50;5.22;;;3.35;;
35909;SDS011;22004;49.120;-0.200;2022-11-15T14:34:15;5.75;;;2.00;;
35909;SDS011;22004;49.120;-0.200;2022-11-15T14:36:40;5.60;;;1.60;;
35909;SDS011;22004;49.120;-0.200;2022-11-15T14:39:06;2.70;;;1.27;;
35909;SDS011;22004;49.120;-0.200;2022-11-15T14:41:34;3.50;;;1.40;;
35909;SDS011;22004;49.120;-0.200;2022-11-15T14:44:03;6.38;;;1.50;;
35909;SDS011;22004;49.120;-0.200;2022-11-15T14:46:30;2.85;;;1.10;;
35909;SDS011;22004;49.120;-0.200;2022-11-15T14:48:58;2.33;;;1.30;;
35909;SDS011;22004;49.120;-0.200;2022-11-15T14:51:23;2.88;;;1.40;;
35909;SDS011;22004;49.120;-0.200;2022-11-15T14:53:50;1.92;;;1.20;;
35909;SDS011;22004;49.120;-0.200;2022-11-15T14:56:16;2.83;;;1.50;;
35909;SDS011;22004;49.120;-0.200;2022-11-15T14:58:41;1.70;;;1.00;;
35909;SDS011;22004;49.120;-0.200;2022-11-15T15:01:15;3.30;;;1.10;;
35909;SDS011;22004;49.120;-0.200;2022-11-15T15:03:44;2.40;;;1.55;;
35909;SDS011;22004;49.120;-0.200;2022-11-15T15:06:09;6.22;;;1.73;;
35909;SDS011;22004;49.120;-0.200;2022-11-15T15:08:37;1.95;;;1.20;;
35909;SDS011;22004;49.120;-0.200;2022-11-15T15:11:04;4.88;;;1.55;;
35909;SDS011;22004;49.120;-0.200;2022-11-15T15:13:35;3.80;;;1.60;;
35909;SDS011;22004;49.120;-0.200;2022-11-15T15:16:01;3.40;;;1.42;;
35909;SDS011;22004;49.120;-0.200;2022-11-15T15:18:26;7.43;;;1.20;;
35909;SDS011;22004;49.120;-0.200;2022-11-15T15:20:56;3.58;;;1.58;;
35909;SDS011;22004;49.120;-0.200;2022-11-15T15:23:25;4.55;;;1.20;;
35909;SDS011;22004;49.120;-0.200;2022-11-15T15:25:54;2.75;;;1.65;;
35909;SDS011;22004;49.120;-0.200;2022-11-15T15:28:19;4.15;;;1.20;;
35909;SDS011;22004;49.120;-0.200;2022-11-15T15:30:45;4.53;;;1.50;;
35909;SDS011;22004;49.120;-0.200;2022-11-15T15:33:10;3.08;;;1.40;;
35909;SDS011;22004;49.120;-0.200;2022-11-15T15:35:36;4.22;;;1.27;;
35909;SDS011;22004;49.120;-0.200;2022-11-15T15:38:01;3.90;;;1.55;;
35909;SDS011;22004;49.120;-0.200;2022-11-15T15:40:29;6.40;;;1.67;;
35909;SDS011;22004;49.120;-0.200;2022-11-15T15:42:56;5.47;;;1.80;;
35909;SDS011;22004;49.120;-0.200;2022-11-15T15:45:21;3.65;;;1.40;;
35909;SDS011;22004;49.120;-0.200;2022-11-15T15:47:47;4.43;;;1.42;;
35909;SDS011;22004;49.120;-0.200;2022-11-15T15:50:24;6.75;;;1.50;;
35909;SDS011;22004;49.120;-0.200;2022-11-15T15:52:55;2.00;;;1.27;;
35909;SDS011;22004;49.120;-0.200;2022-11-15T15:55:22;6.53;;;2.00;;
35909;SDS011;22004;49.120;-0.200;2022-11-15T15:57:48;5.07;;;1.88;;
35909;SDS011;22004;49.120;-0.200;2022-11-15T16:00:14;9.30;;;1.85;;
35909;SDS011;22004;49.120;-0.200;2022-11-15T16:02:40;6.05;;;1.60;;
35909;SDS011;22004;49.120;-0.200;2022-11-15T16:05:06;8.23;;;1.60;;
35909;SDS011;22004;49.120;-0.200;2022-11-15T16:07:32;5.20;;;1.60;;
35909;SDS011;22004;49.120;-0.200;2022-11-15T16:09:58;1.98;;;1.13;;
35909;SDS011;22004;49.120;-0.200;2022-11-15T16:12:27;4.43;;;1.30;;
35909;SDS011;22004;49.120;-0.200;2022-11-15T16:14:53;3.97;;;1.30;;
35909;SDS011;22004;49.120;-0.200;2022-11-15T16:17:19;5.05;;;1.52;;
35909;SDS011;22004;49.120;-0.200;2022-11-15T16:19:47;4.88;;;1.20;;
35909;SDS011;22004;49.120;-0.200;2022-11-15T16:22:13;4.85;;;1.60;;
35909;SDS011;22004;49.120;-0.200;2022-11-15T16:24:38;4.97;;;1.00;;
35909;SDS011;22004;49.120;-0.200;2022-11-15T16:27:04;6.35;;;1.52;;
35909;SDS011;22004;49.120;-0.200;2022-11-15T16:29:29;5.50;;;1.08;;
35909;SDS011;22004;49.120;-0.200;2022-11-15T16:31:55;5.43;;;1.27;;
35909;SDS011;22004;49.120;-0.200;2022-11-15T16:34:21;4.85;;;1.60;;
35909;SDS011;22004;49.120;-0.200;2022-11-15T16:36:47;7.07;;;1.20;;
35909;SDS011;22004;49.120;-0.200;2022-11-15T16:39:13;6.80;;;1.20;;
35909;SDS011;22004;49.120;-0.200;2022-11-15T16:41:40;4.55;;;1.45;;
35909;SDS011;22004;49.120;-0.200;2022-11-15T16:44:08;2.13;;;1.00;;
35909;SDS011;22004;49.120;-0.200;2022-11-15T16:46:33;2.88;;;1.48;;
35909;SDS011;22004;49.120;-0.200;2022-11-15T16:48:59;2.03;;;1.20;;
35909;SDS011;22004;49.120;-0.200;2022-11-15T16:51:25;5.40;;;1.73;;
35909;SDS011;22004;49.120;-0.200;2022-11-15T16:53:50;8.10;;;2.08;;
35909;SDS011;22004;49.120;-0.200;2022-11-15T16:56:26;2.40;;;1.00;;